createdAt,value
2023-04-27T00:00:27.285Z,74.08
2023-04-27T00:01:27.266Z,73.83
2023-04-27T00:02:27.385Z,73.84
2023-04-27T00:03:27.482Z,73.75
2023-04-27T00:04:27.633Z,73.79
2023-04-27T00:05:27.297Z,73.77
2023-04-27T00:06:27.214Z,73.03
2023-04-27T00:07:27.198Z,73.30
2023-04-27T00:08:27.249Z,73.32
2023-04-27T00:09:27.172Z,73.61
2023-04-27T00:10:27.154Z,73.22
2023-04-27T00:11:27.167Z,73.39
2023-04-27T00:12:27.127Z,73.30
2023-04-27T00:13:27.130Z,73.38
2023-04-27T00:14:27.108Z,73.25
2023-04-27T00:15:27.119Z,73.19
2023-04-27T00:16:27.111Z,73.41
2023-04-27T00:17:27.132Z,74.09
2023-04-27T00:18:27.043Z,75.11
2023-04-27T00:19:27.078Z,76.14
2023-04-27T00:20:27.047Z,76.39
2023-04-27T00:21:27.027Z,77.71
2023-04-27T00:22:27.004Z,78.61
2023-04-27T00:23:26.989Z,79.33
2023-04-27T00:24:26.987Z,79.55
2023-04-27T00:25:26.960Z,79.55
2023-04-27T00:26:26.946Z,79.96
2023-04-27T00:27:26.959Z,80.65
2023-04-27T00:28:26.926Z,80.73
2023-04-27T00:29:26.928Z,81.45
2023-04-27T00:30:26.905Z,80.96
2023-04-27T00:31:26.908Z,80.96
2023-04-27T00:32:26.880Z,81.21
2023-04-27T00:33:26.851Z,81.10
2023-04-27T00:34:26.855Z,80.81
2023-04-27T00:35:26.860Z,80.89
2023-04-27T00:36:26.836Z,81.27
2023-04-27T00:37:26.809Z,81.61
2023-04-27T00:38:26.798Z,81.63
2023-04-27T00:39:26.774Z,81.35
2023-04-27T00:40:26.771Z,81.03
2023-04-27T00:41:26.774Z,80.91
2023-04-27T00:42:26.737Z,81.10
2023-04-27T00:43:26.727Z,80.97
2023-04-27T00:44:26.754Z,80.60
2023-04-27T00:45:26.712Z,80.79
2023-04-27T00:46:26.761Z,80.88
2023-04-27T00:47:26.759Z,81.02
2023-04-27T00:48:26.679Z,81.08
2023-04-27T00:49:26.652Z,80.92
2023-04-27T00:50:26.635Z,80.88
2023-04-27T00:51:26.632Z,80.89
2023-04-27T00:52:26.616Z,81.02
2023-04-27T00:53:26.614Z,81.11
2023-04-27T00:54:26.594Z,81.11
2023-04-27T00:55:26.591Z,80.96
2023-04-27T00:56:26.557Z,80.57
2023-04-27T00:57:26.550Z,80.29
2023-04-27T00:58:26.599Z,80.61
2023-04-27T00:59:26.550Z,80.68
2023-04-27T01:00:26.518Z,80.70
2023-04-27T01:01:26.583Z,80.72
2023-04-27T01:02:26.540Z,80.98
2023-04-27T01:03:33.508Z,80.60
2023-04-27T01:04:26.599Z,80.53
2023-04-27T01:05:26.456Z,80.21
2023-04-27T01:06:26.448Z,79.48
2023-04-27T01:07:26.415Z,78.74
2023-04-27T01:08:26.416Z,78.48
2023-04-27T01:09:26.465Z,78.96
2023-04-27T01:10:26.382Z,79.02
2023-04-27T01:11:26.372Z,79.29
2023-04-27T01:12:26.366Z,79.62
2023-04-27T01:13:26.361Z,79.89
2023-04-27T01:14:26.329Z,79.32
2023-04-27T01:15:26.336Z,79.08
2023-04-27T01:16:26.447Z,78.94
2023-04-27T01:17:26.309Z,78.90
2023-04-27T01:18:26.296Z,78.90
2023-04-27T01:19:26.260Z,79.13
2023-04-27T01:20:26.250Z,79.01
2023-04-27T01:21:26.260Z,79.24
2023-04-27T01:22:26.237Z,78.93
2023-04-27T01:23:26.222Z,78.35
2023-04-27T01:24:26.205Z,78.56
2023-04-27T01:25:26.222Z,78.87
2023-04-27T01:26:26.172Z,78.91
2023-04-27T01:27:26.191Z,78.92
2023-04-27T01:28:26.148Z,78.95
2023-04-27T01:29:26.166Z,79.12
2023-04-27T01:30:26.116Z,79.31
2023-04-27T01:31:26.196Z,79.77
2023-04-27T01:32:26.141Z,79.84
2023-04-27T01:33:26.128Z,79.66
2023-04-27T01:34:26.071Z,80.31
2023-04-27T01:35:28.280Z,81.38
2023-04-27T01:36:26.059Z,81.78
2023-04-27T01:37:26.055Z,84.04
2023-04-27T01:38:26.035Z,84.34
2023-04-27T01:39:26.018Z,85.42
2023-04-27T01:40:26.001Z,86.30
2023-04-27T01:41:26.014Z,86.28
2023-04-27T01:42:25.994Z,86.22
2023-04-27T01:43:25.955Z,85.28
2023-04-27T01:44:25.954Z,84.99
2023-04-27T01:45:25.934Z,84.46
2023-04-27T01:46:26.011Z,84.90
2023-04-27T01:47:25.939Z,84.46
2023-04-27T01:48:25.905Z,83.97
2023-04-27T01:49:25.888Z,83.38
2023-04-27T01:50:25.889Z,82.71
2023-04-27T01:51:25.893Z,82.53
2023-04-27T01:52:25.852Z,82.25
2023-04-27T01:53:25.859Z,81.70
2023-04-27T01:54:28.096Z,81.54
2023-04-27T01:55:25.828Z,81.30
2023-04-27T01:56:25.842Z,81.48
2023-04-27T01:57:25.795Z,81.85
2023-04-27T01:58:25.766Z,81.65
2023-04-27T01:59:25.788Z,81.83
2023-04-27T02:00:25.758Z,81.85
2023-04-27T02:01:25.794Z,81.79
2023-04-27T02:02:25.822Z,81.93
2023-04-27T02:03:25.902Z,81.87
2023-04-27T02:04:25.816Z,81.34
2023-04-27T02:05:25.687Z,81.33
2023-04-27T02:06:25.699Z,80.85
2023-04-27T02:07:25.670Z,80.57
2023-04-27T02:08:25.657Z,80.53
2023-04-27T02:09:25.640Z,80.90
2023-04-27T02:10:25.634Z,81.01
2023-04-27T02:11:25.604Z,80.96
2023-04-27T02:12:25.617Z,80.58
2023-04-27T02:13:25.591Z,80.57
2023-04-27T02:14:25.598Z,81.43
2023-04-27T02:15:25.563Z,81.79
2023-04-27T02:16:25.647Z,82.51
2023-04-27T02:17:25.581Z,83.00
2023-04-27T02:18:25.540Z,83.22
2023-04-27T02:19:25.503Z,83.40
2023-04-27T02:20:25.501Z,83.08
2023-04-27T02:21:25.473Z,82.67
2023-04-27T02:22:25.494Z,82.56
2023-04-27T02:23:25.481Z,82.79
2023-04-27T02:24:25.432Z,83.16
2023-04-27T02:25:25.435Z,83.32
2023-04-27T02:26:25.415Z,83.29
2023-04-27T02:27:25.404Z,83.31
2023-04-27T02:28:25.392Z,83.73
2023-04-27T02:29:25.416Z,83.09
2023-04-27T02:30:25.365Z,82.70
2023-04-27T02:31:25.376Z,82.70
2023-04-27T02:32:25.399Z,82.83
2023-04-27T02:33:25.368Z,82.38
2023-04-27T02:34:25.327Z,82.50
2023-04-27T02:35:25.334Z,82.42
2023-04-27T02:36:25.294Z,82.29
2023-04-27T02:37:25.282Z,82.10
2023-04-27T02:38:25.280Z,81.74
2023-04-27T02:39:25.244Z,81.85
2023-04-27T02:40:25.226Z,81.63
2023-04-27T02:41:25.242Z,81.71
2023-04-27T02:42:25.209Z,81.68
2023-04-27T02:43:25.198Z,81.56
2023-04-27T02:44:25.198Z,81.99
2023-04-27T02:45:25.187Z,82.00
2023-04-27T02:46:25.225Z,82.91
2023-04-27T02:47:25.244Z,83.80
2023-04-27T02:48:25.136Z,84.09
2023-04-27T02:49:25.133Z,84.96
2023-04-27T02:50:25.095Z,85.16
2023-04-27T02:51:25.096Z,84.55
2023-04-27T02:52:25.096Z,84.17
2023-04-27T02:53:25.086Z,83.89
2023-04-27T02:54:25.054Z,83.54
2023-04-27T02:55:25.056Z,82.87
2023-04-27T02:56:25.057Z,82.91
2023-04-27T02:57:25.031Z,83.10
2023-04-27T02:58:25.002Z,83.18
2023-04-27T02:59:25.022Z,83.35
2023-04-27T03:00:24.976Z,83.42
2023-04-27T03:01:25.004Z,83.62
2023-04-27T03:02:25.027Z,82.38
2023-04-27T03:03:25.209Z,80.80
2023-04-27T03:04:25.004Z,80.69
2023-04-27T03:05:24.918Z,80.09
2023-04-27T03:06:24.912Z,80.29
2023-04-27T03:07:24.880Z,80.05
2023-04-27T03:08:24.898Z,80.78
2023-04-27T03:09:24.874Z,80.84
2023-04-27T03:10:24.852Z,80.48
2023-04-27T03:11:24.851Z,80.88
2023-04-27T03:12:24.820Z,81.34
2023-04-27T03:13:24.811Z,81.47
2023-04-27T03:14:24.820Z,81.02
2023-04-27T03:15:24.795Z,81.46
2023-04-27T03:16:24.828Z,81.79
2023-04-27T03:17:24.793Z,82.39
2023-04-27T03:18:24.761Z,83.00
2023-04-27T03:19:24.749Z,83.24
2023-04-27T03:20:24.741Z,83.65
2023-04-27T03:21:24.711Z,83.53
2023-04-27T03:22:24.706Z,83.72
2023-04-27T03:23:24.707Z,83.47
2023-04-27T03:24:24.681Z,83.61
2023-04-27T03:25:24.692Z,83.79
2023-04-27T03:26:24.662Z,83.89
2023-04-27T03:27:24.627Z,84.11
2023-04-27T03:28:24.647Z,84.06
2023-04-27T03:29:24.620Z,84.20
2023-04-27T03:30:24.590Z,84.06
2023-04-27T03:31:24.588Z,83.39
2023-04-27T03:32:24.616Z,84.27
2023-04-27T03:33:24.551Z,84.44
2023-04-27T03:34:24.559Z,84.34
2023-04-27T03:35:24.537Z,84.08
2023-04-27T03:36:24.509Z,84.08
2023-04-27T03:37:24.511Z,84.22
2023-04-27T03:38:24.522Z,84.51
2023-04-27T03:39:24.480Z,85.22
2023-04-27T03:40:24.480Z,85.04
2023-04-27T03:41:24.449Z,85.25
2023-04-27T03:42:24.443Z,85.36
2023-04-27T03:43:24.424Z,85.69
2023-04-27T03:44:24.439Z,85.79
2023-04-27T03:45:24.410Z,85.89
2023-04-27T03:46:24.409Z,86.00
2023-04-27T03:47:24.457Z,86.11
2023-04-27T03:48:24.387Z,86.34
2023-04-27T03:49:24.352Z,86.03
2023-04-27T03:50:24.380Z,85.47
2023-04-27T03:51:24.349Z,85.17
2023-04-27T03:52:24.324Z,85.23
2023-04-27T03:53:24.310Z,85.17
2023-04-27T03:54:24.287Z,85.07
2023-04-27T03:55:24.267Z,85.22
2023-04-27T03:56:24.335Z,85.39
2023-04-27T03:57:24.247Z,85.62
2023-04-27T03:58:24.239Z,85.75
2023-04-27T03:59:24.216Z,85.72
2023-04-27T04:00:24.215Z,85.42
2023-04-27T04:01:24.190Z,85.34
2023-04-27T04:02:24.344Z,85.21
2023-04-27T04:03:24.283Z,85.08
2023-04-27T04:04:24.320Z,84.88
2023-04-27T04:05:24.172Z,84.93
2023-04-27T04:06:24.126Z,85.13
2023-04-27T04:07:24.150Z,85.08
2023-04-27T04:08:24.124Z,84.93
2023-04-27T04:09:24.197Z,85.07
2023-04-27T04:10:24.085Z,84.98
2023-04-27T04:11:24.069Z,84.58
2023-04-27T04:12:24.086Z,84.45
2023-04-27T04:13:24.052Z,84.69
2023-04-27T04:14:24.029Z,84.86
2023-04-27T04:15:24.026Z,85.04
2023-04-27T04:16:24.110Z,85.19
2023-04-27T04:17:24.013Z,85.41
2023-04-27T04:18:23.968Z,85.38
2023-04-27T04:19:24.028Z,85.33
2023-04-27T04:20:23.980Z,85.33
2023-04-27T04:21:23.943Z,85.38
2023-04-27T04:22:23.930Z,85.65
2023-04-27T04:23:23.905Z,85.72
2023-04-27T04:24:23.910Z,85.83
2023-04-27T04:25:23.896Z,85.58
2023-04-27T04:26:23.870Z,85.38
2023-04-27T04:27:23.864Z,85.06
2023-04-27T04:28:23.867Z,84.92
2023-04-27T04:29:23.866Z,85.09
2023-04-27T04:30:23.839Z,85.19
2023-04-27T04:31:23.874Z,85.24
2023-04-27T04:32:23.811Z,85.24
2023-04-27T04:33:23.784Z,85.36
2023-04-27T04:34:23.777Z,85.00
2023-04-27T04:35:23.759Z,84.79
2023-04-27T04:36:23.765Z,84.67
2023-04-27T04:37:23.733Z,84.75
2023-04-27T04:38:23.730Z,85.06
2023-04-27T04:39:23.699Z,84.89
2023-04-27T04:40:23.699Z,84.96
2023-04-27T04:41:23.697Z,84.94
2023-04-27T04:42:23.674Z,84.90
2023-04-27T04:43:23.668Z,84.71
2023-04-27T04:44:23.666Z,84.99
2023-04-27T04:45:23.650Z,84.71
2023-04-27T04:46:23.642Z,84.77
2023-04-27T04:47:23.641Z,84.63
2023-04-27T04:48:23.590Z,84.65
2023-04-27T04:49:23.579Z,84.80
2023-04-27T04:50:23.583Z,84.74
2023-04-27T04:51:23.577Z,84.74
2023-04-27T04:52:23.532Z,84.87
2023-04-27T04:53:23.521Z,84.54
2023-04-27T04:54:23.520Z,84.66
2023-04-27T04:55:23.510Z,84.63
2023-04-27T04:56:23.492Z,84.84
2023-04-27T04:57:23.515Z,84.47
2023-04-27T04:58:23.464Z,84.23
2023-04-27T04:59:23.451Z,83.57
2023-04-27T05:00:23.466Z,83.84
2023-04-27T05:01:23.490Z,83.84
2023-04-27T05:02:23.482Z,83.13
2023-04-27T05:03:23.662Z,82.92
2023-04-27T05:04:23.499Z,83.03
2023-04-27T05:05:23.381Z,83.37
2023-04-27T05:06:23.362Z,83.29
2023-04-27T05:07:24.988Z,82.19
2023-04-27T05:08:23.333Z,81.85
2023-04-27T05:09:23.328Z,81.76
2023-04-27T05:10:23.317Z,82.10
2023-04-27T05:11:23.325Z,82.22
2023-04-27T05:12:23.309Z,82.29
2023-04-27T05:13:23.289Z,82.45
2023-04-27T05:14:23.273Z,81.78
2023-04-27T05:15:23.252Z,81.35
2023-04-27T05:16:23.241Z,81.75
2023-04-27T05:17:23.271Z,81.10
2023-04-27T05:18:23.227Z,80.96
2023-04-27T05:19:23.212Z,80.85
2023-04-27T05:20:23.188Z,80.75
2023-04-27T05:21:23.173Z,80.94
2023-04-27T05:22:23.180Z,80.92
2023-04-27T05:23:23.132Z,80.47
2023-04-27T05:24:23.159Z,80.26
2023-04-27T05:25:23.120Z,80.81
2023-04-27T05:26:23.104Z,80.22
2023-04-27T05:27:23.109Z,80.19
2023-04-27T05:28:23.090Z,79.94
2023-04-27T05:29:23.072Z,80.13
2023-04-27T05:30:23.081Z,80.13
2023-04-27T05:31:23.075Z,80.25
2023-04-27T05:32:23.092Z,80.72
2023-04-27T05:33:23.030Z,80.86
2023-04-27T05:34:23.011Z,80.04
2023-04-27T05:35:23.022Z,79.85
2023-04-27T05:36:22.992Z,79.58
2023-04-27T05:37:22.995Z,79.65
2023-04-27T05:38:22.951Z,80.09
2023-04-27T05:39:22.937Z,78.96
2023-04-27T05:40:22.945Z,79.36
2023-04-27T05:41:22.929Z,78.83
2023-04-27T05:42:22.932Z,78.43
2023-04-27T05:43:22.897Z,78.07
2023-04-27T05:44:22.902Z,78.76
2023-04-27T05:45:22.873Z,78.96
2023-04-27T05:46:22.880Z,78.54
2023-04-27T05:47:22.867Z,78.80
2023-04-27T05:48:22.839Z,78.98
2023-04-27T05:49:22.823Z,78.90
2023-04-27T05:50:22.813Z,78.45
2023-04-27T05:51:22.797Z,78.54
2023-04-27T05:52:22.794Z,78.35
2023-04-27T05:53:22.783Z,77.99
2023-04-27T05:54:22.781Z,77.87
2023-04-27T05:55:22.757Z,77.43
2023-04-27T05:56:22.747Z,77.45
2023-04-27T05:57:22.714Z,77.27
2023-04-27T05:58:22.746Z,76.86
2023-04-27T05:59:22.683Z,76.85
2023-04-27T06:00:22.692Z,77.17
2023-04-27T06:01:22.678Z,77.72
2023-04-27T06:02:22.968Z,77.66
2023-04-27T06:03:22.785Z,77.45
2023-04-27T06:04:22.865Z,77.52
2023-04-27T06:05:22.626Z,77.26
2023-04-27T06:06:22.613Z,76.64
2023-04-27T06:07:22.585Z,76.77
2023-04-27T06:08:22.576Z,76.78
2023-04-27T06:09:22.580Z,76.35
2023-04-27T06:10:22.552Z,76.75
2023-04-27T06:11:22.525Z,76.64
2023-04-27T06:12:22.540Z,77.22
2023-04-27T06:13:22.678Z,77.56
2023-04-27T06:14:22.527Z,77.64
2023-04-27T06:15:22.485Z,78.04
2023-04-27T06:16:22.513Z,77.96
2023-04-27T06:17:22.454Z,77.89
2023-04-27T06:18:22.480Z,77.96
2023-04-27T06:19:22.440Z,78.57
2023-04-27T06:20:22.428Z,78.42
2023-04-27T06:21:22.412Z,78.61
2023-04-27T06:22:22.399Z,78.71
2023-04-27T06:23:22.384Z,78.55
2023-04-27T06:24:22.387Z,78.67
2023-04-27T06:25:24.465Z,79.01
2023-04-27T06:26:22.353Z,78.58
2023-04-27T06:27:22.331Z,79.04
2023-04-27T06:28:22.317Z,78.26
2023-04-27T06:29:22.308Z,78.37
2023-04-27T06:30:22.285Z,78.30
2023-04-27T06:31:22.311Z,78.12
2023-04-27T06:32:22.358Z,78.24
2023-04-27T06:33:22.247Z,78.46
2023-04-27T06:34:22.232Z,78.50
2023-04-27T06:35:22.219Z,79.04
2023-04-27T06:36:22.209Z,78.30
2023-04-27T06:38:22.186Z,78.14
2023-04-27T06:39:22.168Z,77.38
2023-04-27T06:40:22.174Z,77.23
2023-04-27T06:41:22.154Z,78.36
2023-04-27T06:42:22.144Z,78.09
2023-04-27T06:43:22.150Z,77.54
2023-04-27T06:44:22.106Z,77.47
2023-04-27T06:45:22.086Z,76.57
2023-04-27T06:46:22.129Z,76.28
2023-04-27T06:47:22.063Z,76.38
2023-04-27T06:48:22.150Z,76.32
2023-04-27T06:49:22.082Z,75.98
2023-04-27T06:50:22.033Z,76.42
2023-04-27T06:51:22.023Z,76.21
2023-04-27T06:52:22.017Z,75.19
2023-04-27T06:53:21.987Z,74.85
2023-04-27T06:54:21.990Z,75.42
2023-04-27T06:55:21.981Z,75.35
2023-04-27T06:56:21.960Z,74.67
2023-04-27T06:57:21.962Z,75.19
2023-04-27T06:58:21.926Z,75.24
2023-04-27T06:59:21.914Z,75.79
2023-04-27T07:00:21.898Z,75.64
2023-04-27T07:01:21.963Z,75.26
2023-04-27T07:02:23.762Z,74.82
2023-04-27T07:03:22.046Z,74.37
2023-04-27T07:04:22.061Z,74.35
2023-04-27T07:05:21.860Z,74.25
2023-04-27T07:06:21.813Z,74.16
2023-04-27T07:07:21.842Z,73.32
2023-04-27T07:08:21.796Z,72.37
2023-04-27T07:10:21.819Z,73.08
2023-04-27T07:11:21.775Z,72.25
2023-04-27T07:12:21.750Z,73.10
2023-04-27T07:13:21.753Z,72.24
2023-04-27T07:14:21.731Z,72.23
2023-04-27T07:15:21.709Z,72.24
2023-04-27T07:16:21.762Z,72.45
2023-04-27T07:17:21.715Z,72.19
2023-04-27T07:18:21.666Z,71.93
2023-04-27T07:19:21.679Z,72.36
2023-04-27T07:20:21.641Z,71.95
2023-04-27T07:21:21.647Z,72.90
2023-04-27T07:22:21.679Z,72.23
2023-04-27T07:23:21.640Z,71.93
2023-04-27T07:24:21.605Z,72.06
2023-04-27T07:25:21.616Z,71.93
2023-04-27T07:26:21.589Z,70.92
2023-04-27T07:27:21.559Z,71.09
2023-04-27T07:28:21.558Z,70.89
2023-04-27T07:29:26.940Z,70.41
2023-04-27T07:30:21.519Z,70.74
2023-04-27T07:31:21.549Z,71.63
2023-04-27T07:32:21.496Z,71.06
2023-04-27T07:33:21.500Z,70.73
2023-04-27T07:34:21.491Z,71.21
2023-04-27T07:35:21.452Z,71.35
2023-04-27T07:36:21.459Z,69.52
2023-04-27T07:37:21.444Z,69.44
2023-04-27T07:38:21.417Z,69.39
2023-04-27T07:39:21.396Z,69.87
2023-04-27T07:40:21.388Z,69.85
2023-04-27T07:41:21.383Z,69.03
2023-04-27T07:42:21.356Z,68.97
2023-04-27T07:43:21.368Z,69.14
2023-04-27T07:44:21.334Z,68.09
2023-04-27T07:45:21.315Z,67.38
2023-04-27T07:46:21.340Z,67.03
2023-04-27T07:47:21.312Z,66.45
2023-04-27T07:48:21.358Z,66.71
2023-04-27T07:49:21.294Z,67.45
2023-04-27T07:50:21.260Z,67.30
2023-04-27T07:51:21.240Z,68.18
2023-04-27T07:52:21.239Z,68.67
2023-04-27T07:53:21.245Z,67.99
2023-04-27T07:54:21.212Z,67.56
2023-04-27T07:55:21.229Z,67.81
2023-04-27T07:56:21.184Z,68.56
2023-04-27T07:57:21.155Z,67.92
2023-04-27T07:58:21.152Z,67.94
2023-04-27T07:59:21.159Z,67.76
2023-04-27T08:00:21.187Z,67.00
2023-04-27T08:01:21.587Z,67.87
2023-04-27T08:02:21.197Z,66.97
2023-04-27T08:03:21.288Z,66.60
2023-04-27T08:04:21.224Z,66.87
2023-04-27T08:05:21.443Z,66.76
2023-04-27T08:06:21.876Z,67.14
2023-04-27T08:07:21.642Z,66.58
2023-04-27T08:08:21.089Z,65.87
2023-04-27T08:09:21.031Z,65.67
2023-04-27T08:10:21.008Z,64.67
2023-04-27T08:11:21.003Z,64.56
2023-04-27T08:12:21.005Z,65.32
2023-04-27T08:13:20.964Z,66.31
2023-04-27T08:14:20.960Z,64.89
2023-04-27T08:15:20.961Z,64.74
2023-04-27T08:16:20.939Z,64.53
2023-04-27T08:17:20.926Z,65.68
2023-04-27T08:18:20.934Z,66.60
2023-04-27T08:19:20.909Z,67.58
2023-04-27T08:20:20.904Z,67.54
2023-04-27T08:21:20.885Z,67.34
2023-04-27T08:22:20.853Z,67.67
2023-04-27T08:23:20.865Z,67.25
2023-04-27T08:24:20.879Z,67.60
2023-04-27T08:25:20.820Z,68.74
2023-04-27T08:26:20.815Z,69.45
2023-04-27T08:27:20.821Z,69.54
2023-04-27T08:28:20.790Z,70.04
2023-04-27T08:29:27.729Z,69.24
2023-04-27T08:30:20.780Z,67.37
2023-04-27T08:31:20.766Z,67.85
2023-04-27T08:32:20.718Z,67.73
2023-04-27T08:33:20.730Z,66.71
2023-04-27T08:34:20.772Z,67.18
2023-04-27T08:35:20.697Z,69.17
2023-04-27T08:36:20.670Z,68.15
2023-04-27T08:37:20.679Z,68.39
2023-04-27T08:38:20.651Z,66.93
2023-04-27T08:39:20.647Z,66.77
2023-04-27T08:40:20.673Z,68.27
2023-04-27T08:41:21.724Z,68.15
2023-04-27T08:42:20.597Z,67.41
2023-04-27T08:43:20.586Z,67.32
2023-04-27T08:44:20.583Z,67.35
2023-04-27T08:45:20.591Z,67.40
2023-04-27T08:46:20.612Z,67.78
2023-04-27T08:47:28.419Z,68.88
2023-04-27T08:48:20.587Z,70.91
2023-04-27T08:49:20.811Z,72.30
2023-04-27T08:50:20.517Z,72.52
2023-04-27T08:51:20.497Z,72.31
2023-04-27T08:52:20.498Z,71.02
2023-04-27T08:53:20.462Z,69.30
2023-04-27T08:54:20.455Z,69.47
2023-04-27T08:55:20.446Z,68.16
2023-04-27T08:56:20.439Z,67.58
2023-04-27T08:57:20.444Z,67.20
2023-04-27T08:58:20.412Z,67.36
2023-04-27T08:59:20.408Z,67.62
2023-04-27T09:00:20.375Z,69.71
2023-04-27T09:01:20.400Z,66.23
2023-04-27T09:02:20.387Z,65.74
2023-04-27T09:03:20.548Z,66.22
2023-04-27T09:04:20.551Z,67.26
2023-04-27T09:05:20.389Z,66.50
2023-04-27T09:06:20.375Z,66.26
2023-04-27T09:07:20.289Z,65.11
2023-04-27T09:08:20.298Z,62.11
2023-04-27T09:09:20.263Z,59.99
2023-04-27T09:10:20.253Z,60.47
2023-04-27T09:11:20.233Z,58.74
2023-04-27T09:12:20.256Z,60.72
2023-04-27T09:13:20.223Z,60.58
2023-04-27T09:14:20.213Z,60.03
2023-04-27T09:15:20.210Z,61.21
2023-04-27T09:16:20.261Z,57.64
2023-04-27T09:17:20.217Z,51.35
2023-04-27T09:18:20.164Z,48.77
2023-04-27T09:19:20.159Z,46.92
2023-04-27T09:20:20.185Z,46.33
2023-04-27T09:21:20.125Z,48.73
2023-04-27T09:22:20.126Z,49.09
2023-04-27T09:23:20.096Z,51.14
2023-04-27T09:24:20.094Z,52.63
2023-04-27T09:25:20.087Z,53.63
2023-04-27T09:26:20.165Z,52.69
2023-04-27T09:27:20.109Z,53.06
2023-04-27T09:28:20.111Z,54.70
2023-04-27T09:29:20.090Z,54.59
2023-04-27T09:30:20.181Z,52.38
2023-04-27T09:31:20.054Z,51.67
2023-04-27T09:32:20.042Z,52.97
2023-04-27T09:33:20.018Z,52.15
2023-04-27T09:34:20.040Z,51.56
2023-04-27T09:35:19.973Z,52.28
2023-04-27T09:36:20.026Z,50.26
2023-04-27T09:37:19.953Z,51.64
2023-04-27T09:38:20.016Z,51.73
2023-04-27T09:39:19.942Z,52.48
2023-04-27T09:40:19.981Z,49.13
2023-04-27T09:41:19.937Z,43.77
2023-04-27T09:42:19.922Z,44.71
2023-04-27T09:43:19.910Z,46.72
2023-04-27T09:44:19.928Z,48.48
2023-04-27T09:45:19.882Z,48.47
2023-04-27T09:46:19.928Z,49.66
2023-04-27T09:47:19.908Z,51.22
2023-04-27T09:48:19.855Z,53.69
2023-04-27T09:49:19.909Z,56.50
2023-04-27T09:50:19.946Z,56.55
2023-04-27T09:51:19.844Z,57.91
2023-04-27T09:52:19.811Z,58.03
2023-04-27T09:53:19.807Z,61.09
2023-04-27T09:54:19.800Z,62.29
2023-04-27T09:55:19.814Z,60.57
2023-04-27T09:56:19.768Z,62.36
2023-04-27T09:57:19.772Z,62.87
2023-04-27T09:58:19.734Z,63.19
2023-04-27T09:59:19.761Z,64.18
2023-04-27T10:00:19.744Z,61.11
2023-04-27T10:01:19.806Z,62.42
2023-04-27T10:02:25.365Z,64.47
2023-04-27T10:03:19.776Z,65.93
2023-04-27T10:04:19.770Z,65.08
2023-04-27T10:05:19.747Z,66.60
2023-04-27T10:06:19.674Z,66.82
2023-04-27T10:07:19.636Z,66.28
2023-04-27T10:08:19.620Z,67.48
2023-04-27T10:09:19.612Z,66.08
2023-04-27T10:10:19.674Z,66.52
2023-04-27T10:11:19.588Z,66.26
2023-04-27T10:12:19.598Z,67.63
2023-04-27T10:13:19.562Z,67.09
2023-04-27T10:14:19.580Z,65.23
2023-04-27T10:15:19.540Z,63.37
2023-04-27T10:16:19.579Z,62.26
2023-04-27T10:17:19.507Z,63.24
2023-04-27T10:18:19.514Z,63.90
2023-04-27T10:19:19.504Z,62.82
2023-04-27T10:20:19.473Z,63.69
2023-04-27T10:21:19.460Z,65.04
2023-04-27T10:22:19.446Z,64.08
2023-04-27T10:23:19.469Z,63.50
2023-04-27T10:24:19.451Z,63.93
2023-04-27T10:25:19.985Z,63.56
2023-04-27T10:26:19.402Z,64.76
2023-04-27T10:27:19.389Z,63.85
2023-04-27T10:28:19.378Z,60.37
2023-04-27T10:29:19.362Z,59.30
2023-04-27T10:30:19.435Z,57.89
2023-04-27T10:31:19.350Z,58.13
2023-04-27T10:32:19.355Z,59.57
2023-04-27T10:33:19.351Z,59.72
2023-04-27T10:34:21.340Z,59.46
2023-04-27T10:35:19.316Z,56.81
2023-04-27T10:36:19.284Z,54.62
2023-04-27T10:37:19.279Z,54.30
2023-04-27T10:38:19.279Z,54.61
2023-04-27T10:39:19.250Z,53.46
2023-04-27T10:40:19.326Z,51.84
2023-04-27T10:41:19.220Z,53.79
2023-04-27T10:42:19.217Z,51.49
2023-04-27T10:43:19.196Z,53.30
2023-04-27T10:44:19.208Z,53.42
2023-04-27T10:45:19.176Z,52.41
2023-04-27T10:46:19.214Z,51.53
2023-04-27T10:47:19.156Z,52.50
2023-04-27T10:48:19.142Z,52.74
2023-04-27T10:49:19.149Z,52.01
2023-04-27T10:50:19.107Z,51.61
2023-04-27T10:51:19.108Z,49.35
2023-04-27T10:52:19.113Z,48.31
2023-04-27T10:53:19.081Z,46.08
2023-04-27T10:54:19.107Z,44.84
2023-04-27T10:55:19.067Z,43.41
2023-04-27T10:56:19.073Z,43.93
2023-04-27T10:57:19.030Z,44.11
2023-04-27T10:58:19.043Z,46.21
2023-04-27T10:59:19.008Z,46.28
2023-04-27T11:00:19.042Z,46.45
2023-04-27T11:01:19.071Z,46.15
2023-04-27T11:02:19.105Z,46.13
2023-04-27T11:03:19.028Z,45.43
2023-04-27T11:04:18.970Z,44.72
2023-04-27T11:05:18.969Z,46.61
2023-04-27T11:06:18.971Z,45.81
2023-04-27T11:07:18.936Z,46.71
2023-04-27T11:08:18.918Z,45.60
2023-04-27T11:09:18.905Z,46.62
2023-04-27T11:10:18.896Z,48.40
2023-04-27T11:11:18.896Z,49.03
2023-04-27T11:12:18.887Z,50.40
2023-04-27T11:13:18.853Z,51.01
2023-04-27T11:14:18.842Z,52.33
2023-04-27T11:15:18.840Z,51.00
2023-04-27T11:16:18.864Z,51.79
2023-04-27T11:17:18.809Z,51.04
2023-04-27T11:18:18.806Z,49.26
2023-04-27T11:19:18.788Z,49.99
2023-04-27T11:20:18.789Z,47.86
2023-04-27T11:21:18.776Z,46.05
2023-04-27T11:22:18.753Z,45.65
2023-04-27T11:23:18.740Z,47.75
2023-04-27T11:24:18.735Z,50.14
2023-04-27T11:25:18.738Z,49.99
2023-04-27T11:26:18.711Z,46.74
2023-04-27T11:27:18.688Z,48.34
2023-04-27T11:28:18.703Z,50.83
2023-04-27T11:29:18.676Z,48.99
2023-04-27T11:30:18.665Z,47.55
2023-04-27T11:31:18.661Z,47.32
2023-04-27T11:32:18.635Z,46.59
2023-04-27T11:33:18.629Z,46.06
2023-04-27T11:34:19.495Z,47.67
2023-04-27T11:35:18.626Z,46.90
2023-04-27T11:36:18.580Z,48.35
2023-04-27T11:37:18.893Z,49.22
2023-04-27T11:38:18.604Z,47.13
2023-04-27T11:39:18.639Z,46.98
2023-04-27T11:40:18.543Z,48.65
2023-04-27T11:41:18.570Z,47.32
2023-04-27T11:42:18.534Z,46.39
2023-04-27T11:43:18.514Z,45.91
2023-04-27T11:44:18.489Z,46.62
2023-04-27T11:45:18.520Z,45.06
2023-04-27T11:46:18.533Z,44.36
2023-04-27T11:47:19.111Z,43.31
2023-04-27T11:48:18.490Z,44.99
2023-04-27T11:49:18.465Z,44.44
2023-04-27T11:50:18.468Z,44.99
2023-04-27T11:51:18.460Z,43.62
2023-04-27T11:52:18.512Z,43.24
2023-04-27T11:53:19.090Z,44.29
2023-04-27T11:54:18.409Z,45.06
2023-04-27T11:55:18.379Z,45.65
2023-04-27T11:56:18.395Z,45.40
2023-04-27T11:57:18.374Z,44.76
2023-04-27T11:58:18.374Z,44.87
2023-04-27T11:59:18.345Z,44.73
2023-04-27T12:00:18.314Z,44.55
2023-04-27T12:01:27.811Z,45.55
2023-04-27T12:02:18.400Z,45.88
2023-04-27T12:03:18.508Z,47.84
2023-04-27T12:04:18.741Z,49.52
2023-04-27T12:05:18.303Z,47.86
2023-04-27T12:07:18.252Z,50.30
2023-04-27T12:08:18.254Z,49.82
2023-04-27T12:09:18.220Z,48.18
2023-04-27T12:10:18.253Z,48.42
2023-04-27T12:11:18.192Z,48.25
2023-04-27T12:12:18.191Z,48.78
2023-04-27T12:13:18.180Z,47.97
2023-04-27T12:14:18.159Z,48.35
2023-04-27T12:15:18.186Z,48.59
2023-04-27T12:16:18.167Z,46.20
2023-04-27T12:17:18.200Z,46.57
2023-04-27T12:18:18.122Z,42.73
2023-04-27T12:19:18.100Z,42.66
2023-04-27T12:20:18.121Z,44.19
2023-04-27T12:21:18.083Z,44.30
2023-04-27T12:22:18.085Z,44.12
2023-04-27T12:23:18.069Z,44.14
2023-04-27T12:24:18.063Z,45.28
2023-04-27T12:25:18.041Z,44.52
2023-04-27T12:26:18.034Z,43.83
2023-04-27T12:27:18.016Z,41.28
2023-04-27T12:28:17.998Z,41.10
2023-04-27T12:29:18.004Z,42.69
2023-04-27T12:30:18.013Z,44.89
2023-04-27T12:31:17.975Z,44.32
2023-04-27T12:32:17.969Z,44.29
2023-04-27T12:33:18.021Z,44.22
2023-04-27T12:34:17.932Z,42.64
2023-04-27T12:35:17.929Z,44.95
2023-04-27T12:36:17.900Z,47.84
2023-04-27T12:37:17.902Z,47.57
2023-04-27T12:38:17.909Z,44.70
2023-04-27T12:39:17.865Z,45.18
2023-04-27T12:40:17.945Z,47.77
2023-04-27T12:41:17.849Z,47.36
2023-04-27T12:42:17.842Z,48.02
2023-04-27T12:43:17.863Z,46.71
2023-04-27T12:44:17.855Z,46.15
2023-04-27T12:45:17.809Z,45.95
2023-04-27T12:46:17.825Z,46.53
2023-04-27T12:47:34.606Z,47.54
2023-04-27T12:48:17.901Z,47.58
2023-04-27T12:49:17.791Z,48.15
2023-04-27T12:50:17.796Z,47.80
2023-04-27T12:51:17.736Z,48.99
2023-04-27T12:52:17.740Z,46.73
2023-04-27T12:53:17.701Z,48.03
2023-04-27T12:54:17.692Z,47.04
2023-04-27T12:55:31.350Z,48.12